Time;durP1;ratioP1;P1;durP2;ratioP2;P2;SDS_P1;SDS_P2;PMS_P1;PMS_P2;Temp;Humidity;BMP_temperature;BMP_pressure;BME280_temperature;BME280_humidity;BME280_pressure;Samples;Min_cycle;Max_cycle;Signal;HPM_P1;HPM_P2
2022/05/28 00:01:22;;;;;;;2.35;0.98;;;;;;;20.81;39.55;99418.31;4438544;32;35066;-63
2022/05/28 00:03:53;;;;;;;1.62;0.82;;;;;;;20.80;39.12;99422.06;4449227;32;33562;-63
2022/05/28 00:06:22;;;;;;;1.45;0.73;;;;;;;20.68;39.05;99425.25;4446680;32;34421;-64
2022/05/28 00:08:51;;;;;;;2.35;0.82;;;;;;;20.67;38.83;99430.88;4445128;32;33536;-64
2022/05/28 00:11:30;;;;;;;1.52;0.70;;;;;;;20.68;39.05;99425.25;4449958;32;32753;-63
2022/05/28 00:13:58;;;;;;;2.40;0.90;;;;;;;20.72;39.25;99424.88;4448920;32;33696;-64
2022/05/28 00:16:25;;;;;;;1.52;0.77;;;;;;;20.90;38.55;99419.91;4447513;32;33080;-63
2022/05/28 00:18:53;;;;;;;1.30;0.75;;;;;;;21.15;38.02;99432.16;4440425;32;35027;-63
2022/05/28 00:21:23;;;;;;;6.53;0.90;;;;;;;20.63;39.00;99429.56;4450395;32;33776;-64
2022/05/28 00:23:51;;;;;;;0.90;0.65;;;;;;;20.53;39.08;99415.41;4448497;32;34650;-64
2022/05/28 00:26:19;;;;;;;2.92;0.93;;;;;;;21.00;38.14;99408.72;4449567;32;32128;-64
2022/05/28 00:28:47;;;;;;;0.85;0.77;;;;;;;20.47;39.03;99419.69;4448487;32;34880;-64
2022/05/28 00:31:15;;;;;;;0.60;0.60;;;;;;;20.85;38.85;99425.06;4441611;32;34065;-64
2022/05/28 00:33:43;;;;;;;2.10;0.77;;;;;;;20.80;38.81;99430.22;4444313;32;34832;-65
2022/05/28 00:36:12;;;;;;;1.90;0.70;;;;;;;20.43;40.57;99443.66;4446589;32;32221;-65
2022/05/28 00:38:41;;;;;;;2.95;0.90;;;;;;;20.33;38.90;99443.09;4444533;32;33787;-66
2022/05/28 00:41:09;;;;;;;1.25;0.60;;;;;;;20.16;39.23;99455.13;4444152;32;33525;-66
2022/05/28 00:43:39;;;;;;;2.15;0.90;;;;;;;20.18;39.86;99463.97;4447130;32;33479;-64
2022/05/28 00:46:11;;;;;;;1.85;0.88;;;;;;;19.90;39.86;99461.84;4436656;32;32871;-66
2022/05/28 00:48:44;;;;;;;1.15;0.70;;;;;;;20.58;38.39;99462.75;4446484;32;35821;-66
2022/05/28 00:51:16;;;;;;;1.15;0.73;;;;;;;20.41;38.33;99469.34;4446852;32;33822;-65
2022/05/28 00:53:43;;;;;;;1.30;0.80;;;;;;;20.04;41.16;99467.50;4444449;32;34744;-65
2022/05/28 00:56:11;;;;;;;1.48;0.85;;;;;;;20.19;38.37;99468.34;4457279;32;33430;-67
2022/05/28 00:58:39;;;;;;;2.42;1.00;;;;;;;20.02;40.22;99456.78;4445140;32;32289;-64
2022/05/28 01:01:08;;;;;;;1.37;0.90;;;;;;;19.76;39.80;99449.84;4447628;32;33725;-64
2022/05/28 01:03:51;;;;;;;2.55;1.10;;;;;;;19.57;40.44;99444.03;4444780;32;33707;-65
2022/05/28 01:06:42;;;;;;;2.58;0.98;;;;;;;19.51;40.20;99432.84;4434050;32;33916;-65
2022/05/28 01:09:25;;;;;;;3.90;1.00;;;;;;;19.49;40.40;99429.50;4440138;32;35148;-64
2022/05/28 01:12:15;;;;;;;2.03;1.10;;;;;;;20.09;39.51;99421.59;4449117;32;35273;-64
2022/05/28 01:15:13;;;;;;;1.55;0.93;;;;;;;19.53;40.58;99410.97;4450328;32;33835;-65
2022/05/28 01:17:48;;;;;;;1.92;0.90;;;;;;;19.96;39.67;99414.91;4448048;32;34179;-65
2022/05/28 01:20:53;;;;;;;1.77;0.90;;;;;;;19.68;40.36;99411.94;4449327;32;35012;-64
2022/05/28 01:23:32;;;;;;;1.92;0.95;;;;;;;19.55;42.07;99403.50;4440160;32;33826;-64
2022/05/28 01:26:21;;;;;;;1.42;0.85;;;;;;;19.46;41.33;99401.88;4448059;32;32574;-64
2022/05/28 01:28:54;;;;;;;1.40;0.90;;;;;;;19.03;43.55;99398.72;4445898;32;34582;-65
2022/05/28 01:31:22;;;;;;;2.22;1.10;;;;;;;19.83;40.56;99387.53;4446729;32;33751;-65
2022/05/28 01:33:50;;;;;;;1.50;1.05;;;;;;;19.82;40.37;99393.16;4447220;32;34047;-64
2022/05/28 01:36:18;;;;;;;2.25;1.30;;;;;;;19.96;40.83;99395.03;4445937;32;32372;-64
2022/05/28 01:38:46;;;;;;;2.65;1.20;;;;;;;20.01;40.04;99395.34;4447491;32;33150;-65
2022/05/28 01:41:15;;;;;;;2.05;1.15;;;;;;;19.97;40.08;99392.16;4446913;32;34831;-65
2022/05/28 01:43:44;;;;;;;2.42;1.10;;;;;;;20.12;40.05;99394.88;4447694;32;34867;-65
2022/05/28 01:46:13;;;;;;;1.92;1.00;;;;;;;20.25;39.84;99383.37;4447506;32;32797;-65
2022/05/28 01:48:43;;;;;;;1.98;1.08;;;;;;;19.98;40.80;99406.59;4448861;32;32018;-64
2022/05/28 01:51:12;;;;;;;1.33;0.82;;;;;;;20.27;39.70;99410.38;4450139;32;34699;-64
2022/05/28 01:56:27;;;;;;;1.80;0.90;;;;;;;19.74;41.20;99419.34;4449227;32;33773;-64
2022/05/28 01:58:55;;;;;;;1.62;1.00;;;;;;;19.70;41.84;99415.28;4447911;32;32159;-64
2022/05/28 02:01:22;;;;;;;1.85;1.00;;;;;;;19.87;41.01;99421.44;4448733;32;33946;-64
2022/05/28 02:03:52;;;;;;;1.60;1.00;;;;;;;19.91;40.96;99428.19;4446848;32;34993;-65
2022/05/28 02:06:20;;;;;;;2.90;1.12;;;;;;;20.06;41.41;99416.50;4449557;32;32970;-64
2022/05/28 02:08:49;;;;;;;2.95;1.10;;;;;;;20.05;41.23;99423.00;4448133;32;33091;-65
2022/05/28 02:11:20;;;;;;;2.10;1.02;;;;;;;19.64;41.86;99420.59;4450223;32;32565;-64
2022/05/28 02:14:07;;;;;;;3.05;1.42;;;;;;;20.09;40.97;99408.00;4450196;32;33881;-65
2022/05/28 02:16:49;;;;;;;1.58;1.05;;;;;;;20.23;40.70;99415.34;4449313;32;33410;-64
2022/05/28 02:19:49;;;;;;;2.72;1.30;;;;;;;20.55;40.24;99427.78;4445988;32;34362;-64
2022/05/28 02:22:21;;;;;;;2.03;1.02;;;;;;;20.40;40.93;99419.56;4435454;32;34920;-64
2022/05/28 02:24:52;;;;;;;2.53;1.10;;;;;;;19.81;41.71;99415.88;4441717;32;33962;-64
2022/05/28 02:27:21;;;;;;;2.17;1.02;;;;;;;19.89;42.52;99418.53;4449432;32;33576;-64
2022/05/28 02:29:49;;;;;;;2.08;1.20;;;;;;;19.66;42.20;99422.13;4447665;32;34247;-64
2022/05/28 02:32:23;;;;;;;2.55;1.17;;;;;;;20.12;41.57;99432.09;4444929;32;34997;-67
2022/05/28 02:34:50;;;;;;;1.45;0.90;;;;;;;20.30;41.72;99429.87;4448734;32;36360;-64
2022/05/28 02:37:21;;;;;;;1.45;0.90;;;;;;;20.17;41.54;99426.97;4449366;32;33495;-65
2022/05/28 02:39:49;;;;;;;3.00;1.20;;;;;;;20.64;40.58;99440.28;4449195;32;33474;-65
2022/05/28 02:42:17;;;;;;;4.00;1.30;;;;;;;20.64;40.69;99442.13;4450237;32;35131;-67
2022/05/28 02:44:45;;;;;;;1.73;1.02;;;;;;;19.73;43.57;99439.34;4450423;32;35567;-66
2022/05/28 02:47:12;;;;;;;4.55;1.60;;;;;;;19.85;42.79;99441.66;4447108;32;34901;-65
2022/05/28 02:49:40;;;;;;;2.00;1.02;;;;;;;20.06;42.20;99444.53;4448853;32;33282;-66
2022/05/28 02:52:08;;;;;;;1.95;1.10;;;;;;;20.14;43.16;99436.31;4449919;32;34804;-66
2022/05/28 02:54:36;;;;;;;1.98;1.10;;;;;;;20.61;41.14;99429.75;4450591;32;33940;-64
2022/05/28 02:57:04;;;;;;;1.55;0.93;;;;;;;20.34;41.65;99436.63;4456077;32;33901;-64
2022/05/28 02:59:32;;;;;;;2.53;1.10;;;;;;;20.20;42.35;99430.16;4449307;32;34201;-67
2022/05/28 03:02:00;;;;;;;1.77;1.15;;;;;;;20.05;42.18;99421.13;4448296;32;34025;-66
2022/05/28 03:04:28;;;;;;;2.62;1.35;;;;;;;19.61;43.59;99421.75;4449085;32;35251;-65
2022/05/28 03:06:56;;;;;;;1.67;1.10;;;;;;;19.40;44.90;99416.16;4448143;32;35084;-65
2022/05/28 03:09:23;;;;;;;2.40;1.30;;;;;;;19.66;43.03;99413.13;4447095;32;32891;-63
2022/05/28 03:11:51;;;;;;;2.67;1.20;;;;;;;19.64;43.20;99416.00;4448946;32;34879;-65
2022/05/28 03:14:19;;;;;;;2.75;1.30;;;;;;;19.49;43.73;99406.94;4449142;32;33202;-65
2022/05/28 03:16:46;;;;;;;3.00;1.20;;;;;;;19.02;45.69;99405.19;4449413;32;34773;-64
2022/05/28 03:19:14;;;;;;;2.53;1.05;;;;;;;19.56;44.61;99418.75;4448478;32;34437;-63
2022/05/28 03:21:41;;;;;;;3.97;1.17;;;;;;;19.29;45.06;99426.41;4449612;32;33502;-68
2022/05/28 03:24:09;;;;;;;2.45;1.05;;;;;;;19.17;45.29;99422.41;4447114;32;34019;-64
2022/05/28 03:26:37;;;;;;;2.42;1.10;;;;;;;19.81;43.68;99419.47;4447385;32;34743;-64
2022/05/28 03:29:05;;;;;;;5.00;1.67;;;;;;;19.77;43.33;99426.25;4449288;32;31844;-64
2022/05/28 03:31:33;;;;;;;2.58;1.25;;;;;;;20.15;42.61;99429.00;4448768;32;32617;-65
2022/05/28 03:34:01;;;;;;;2.22;1.15;;;;;;;19.98;43.77;99401.16;4447182;32;33850;-65
2022/05/28 03:36:29;;;;;;;3.05;1.40;;;;;;;20.05;42.92;99407.53;4449933;32;33731;-63
2022/05/28 03:38:57;;;;;;;2.12;1.10;;;;;;;20.35;42.04;99392.13;4445663;32;33812;-62
2022/05/28 03:41:27;;;;;;;2.80;1.40;;;;;;;19.95;42.76;99406.94;4448367;32;34615;-62
2022/05/28 03:43:55;;;;;;;2.22;1.10;;;;;;;19.73;43.41;99411.38;4450158;32;35200;-66
2022/05/28 03:46:28;;;;;;;2.37;1.10;;;;;;;19.70;43.00;99415.28;4449743;32;34728;-63
2022/05/28 03:48:59;;;;;;;3.05;1.48;;;;;;;19.78;43.13;99417.94;4447058;32;33125;-62
2022/05/28 03:51:26;;;;;;;2.30;1.02;;;;;;;19.87;43.10;99418.75;4448048;32;32931;-66
2022/05/28 03:53:54;;;;;;;2.67;1.40;;;;;;;19.77;43.35;99420.81;4448202;32;34384;-63
2022/05/28 03:56:22;;;;;;;2.60;1.20;;;;;;;20.05;42.50;99418.41;4449924;32;34029;-62
2022/05/28 03:58:50;;;;;;;1.92;1.05;;;;;;;19.93;43.00;99412.53;4447979;32;34611;-63
2022/05/28 04:01:18;;;;;;;2.72;1.40;;;;;;;20.08;42.64;99409.03;4448032;32;32563;-62
2022/05/28 04:03:46;;;;;;;1.60;1.05;;;;;;;20.12;42.59;99413.06;4448021;32;35596;-63
2022/05/28 04:06:13;;;;;;;2.60;1.33;;;;;;;20.25;42.93;99407.84;4447210;32;34645;-64
2022/05/28 04:08:41;;;;;;;1.77;1.10;;;;;;;20.45;41.91;99405.44;4447092;32;34110;-62
2022/05/28 04:11:10;;;;;;;1.95;1.30;;;;;;;20.61;42.07;99396.25;4449226;32;34384;-64
2022/05/28 04:13:37;;;;;;;2.33;1.40;;;;;;;20.10;43.34;99396.97;4445972;32;35189;-63
2022/05/28 04:16:05;;;;;;;3.90;1.37;;;;;;;20.23;41.91;99405.31;4437235;32;34724;-62
2022/05/28 04:18:33;;;;;;;3.35;1.50;;;;;;;20.14;41.99;99411.03;4447859;32;32138;-64
2022/05/28 04:21:01;;;;;;;3.05;1.23;;;;;;;19.98;42.64;99417.44;4447942;32;34116;-63
2022/05/28 04:23:28;;;;;;;4.12;1.25;;;;;;;19.94;43.15;99410.69;4446807;32;34847;-65
2022/05/28 04:25:56;;;;;;;2.85;1.42;;;;;;;19.87;43.11;99410.59;4446279;32;33132;-63
2022/05/28 04:28:24;;;;;;;4.32;1.60;;;;;;;20.31;41.98;99412.53;4444860;32;33515;-65
2022/05/28 04:30:55;;;;;;;2.72;1.27;;;;;;;19.83;43.49;99405.69;4447892;32;32481;-62
2022/05/28 04:33:23;;;;;;;2.50;1.20;;;;;;;19.65;43.11;99406.84;4448779;32;32624;-65
2022/05/28 04:35:51;;;;;;;3.33;1.42;;;;;;;20.31;42.06;99411.69;4448994;32;33738;-62
2022/05/28 04:38:19;;;;;;;3.53;1.48;;;;;;;20.22;42.33;99408.22;4451376;32;33332;-65
2022/05/28 04:40:47;;;;;;;2.70;1.35;;;;;;;20.52;41.80;99403.69;4449926;32;34073;-65
2022/05/28 04:43:14;;;;;;;3.78;1.35;;;;;;;20.07;42.99;99408.19;4451764;32;33928;-64
2022/05/28 04:45:42;;;;;;;3.78;0.98;;;;;;;19.82;43.48;99423.84;4449964;32;35029;-62
2022/05/28 04:48:10;;;;;;;2.85;1.20;;;;;;;19.60;43.78;99425.50;4449799;32;31884;-63
2022/05/28 04:50:37;;;;;;;1.83;1.20;;;;;;;20.14;42.54;99424.59;4449862;32;33510;-62
2022/05/28 04:53:05;;;;;;;3.03;2.10;;;;;;;19.75;43.57;99418.31;4450119;32;32999;-64
2022/05/28 04:55:33;;;;;;;4.90;1.70;;;;;;;19.38;44.92;99420.91;4450146;32;33710;-68
2022/05/28 04:58:00;;;;;;;2.95;1.30;;;;;;;19.66;43.95;99427.53;4448851;32;33263;-65
2022/05/28 05:00:28;;;;;;;1.55;1.10;;;;;;;18.84;47.21;99414.44;4451820;32;33707;-65
2022/05/28 05:02:56;;;;;;;3.85;1.45;;;;;;;19.22;45.87;99422.69;4450856;32;34912;-64
2022/05/28 05:05:23;;;;;;;1.67;1.12;;;;;;;19.94;43.62;99427.00;4449988;32;33775;-65
2022/05/28 05:07:51;;;;;;;3.85;1.40;;;;;;;19.81;44.12;99429.44;4449851;32;33376;-64
2022/05/28 05:10:19;;;;;;;3.12;1.27;;;;;;;19.94;43.43;99444.13;4451229;32;35575;-65
2022/05/28 05:12:46;;;;;;;5.12;1.60;;;;;;;20.13;43.44;99437.34;4451126;32;33103;-66
2022/05/28 05:15:14;;;;;;;3.22;1.95;;;;;;;20.19;43.16;99435.75;4449389;32;32744;-65
2022/05/28 05:17:42;;;;;;;3.30;1.55;;;;;;;20.18;43.39;99428.63;4451332;32;33304;-65
2022/05/28 05:20:11;;;;;;;1.98;1.10;;;;;;;19.87;44.29;99429.59;4449606;32;32307;-65
2022/05/28 05:22:39;;;;;;;2.62;1.30;;;;;;;19.99;43.88;99424.56;4448804;32;33845;-63
2022/05/28 05:25:08;;;;;;;3.05;1.30;;;;;;;20.19;43.35;99430.31;4449079;32;32534;-66
2022/05/28 05:27:35;;;;;;;2.95;1.45;;;;;;;20.46;42.68;99434.31;4450416;32;32120;-66
2022/05/28 05:30:03;;;;;;;2.92;1.40;;;;;;;20.42;43.24;99433.00;4449193;32;35035;-66
2022/05/28 05:32:32;;;;;;;2.10;1.30;;;;;;;20.52;42.45;99428.16;4451575;32;33926;-65
2022/05/28 05:34:59;;;;;;;2.30;1.23;;;;;;;20.35;43.14;99430.19;4449577;32;34129;-66
2022/05/28 05:37:27;;;;;;;2.83;1.30;;;;;;;20.86;42.63;99421.28;4448682;32;33386;-65
2022/05/28 05:39:55;;;;;;;2.75;1.40;;;;;;;20.64;42.80;99429.37;4449031;32;33660;-66
2022/05/28 05:42:22;;;;;;;3.05;1.20;;;;;;;20.76;42.90;99432.47;4450933;32;33489;-65
2022/05/28 05:44:50;;;;;;;3.12;1.40;;;;;;;20.60;42.72;99428.06;4449437;32;32759;-65
2022/05/28 05:47:18;;;;;;;8.13;1.55;;;;;;;20.66;41.71;99440.91;4450738;32;33292;-64
2022/05/28 05:49:45;;;;;;;2.58;1.27;;;;;;;20.72;42.42;99438.47;4450545;32;33637;-64
2022/05/28 05:52:13;;;;;;;3.03;1.42;;;;;;;20.95;41.77;99439.22;4446654;32;34573;-65
2022/05/28 05:54:45;;;;;;;2.33;1.23;;;;;;;21.15;41.14;99447.63;4448829;32;34284;-64
2022/05/28 05:57:12;;;;;;;2.80;1.35;;;;;;;20.78;42.78;99424.97;4450506;32;34279;-65
2022/05/28 05:59:40;;;;;;;3.72;1.90;;;;;;;20.85;42.25;99428.63;4449838;32;32954;-65
2022/05/28 06:02:08;;;;;;;3.55;1.80;;;;;;;21.13;41.43;99422.50;4449494;32;33904;-66
2022/05/28 06:04:36;;;;;;;3.67;1.60;;;;;;;20.78;42.33;99427.69;4449533;32;32502;-65
2022/05/28 06:07:05;;;;;;;3.97;1.60;;;;;;;21.01;41.45;99430.28;4447482;32;32345;-65
2022/05/28 06:09:33;;;;;;;2.78;1.60;;;;;;;21.18;41.12;99426.31;4446743;32;33893;-64
2022/05/28 06:12:01;;;;;;;2.15;1.27;;;;;;;20.91;41.38;99418.88;4449792;32;33423;-65
2022/05/28 06:14:28;;;;;;;1.92;1.10;;;;;;;20.62;42.04;99411.56;4449919;32;34771;-66
2022/05/28 06:16:56;;;;;;;3.78;1.40;;;;;;;20.88;43.03;99425.53;4448979;32;32074;-65
2022/05/28 06:19:24;;;;;;;5.90;1.55;;;;;;;21.13;41.96;99433.38;4447361;32;33346;-65
2022/05/28 06:21:52;;;;;;;4.65;1.50;;;;;;;21.54;41.42;99430.09;4448502;32;34129;-63
2022/05/28 06:24:19;;;;;;;2.83;1.40;;;;;;;21.30;41.87;99426.66;4448904;32;35081;-66
2022/05/28 06:26:47;;;;;;;5.18;1.30;;;;;;;21.29;41.15;99416.81;4448808;32;33224;-65
2022/05/28 06:29:15;;;;;;;2.95;1.42;;;;;;;21.04;40.88;99423.63;4449281;32;34795;-65
2022/05/28 06:31:42;;;;;;;4.28;1.35;;;;;;;21.13;40.25;99427.94;4448517;32;32349;-65
2022/05/28 06:34:10;;;;;;;5.43;1.70;;;;;;;21.63;40.33;99426.22;4449812;32;33760;-66
2022/05/28 06:36:38;;;;;;;2.15;1.20;;;;;;;20.71;40.33;99426.75;4447442;32;34068;-64
2022/05/28 06:39:05;;;;;;;3.37;1.48;;;;;;;21.31;39.77;99430.22;4448929;32;33811;-64
2022/05/28 06:41:33;;;;;;;2.95;1.20;;;;;;;21.53;39.15;99422.97;4450126;32;35102;-64
2022/05/28 06:44:01;;;;;;;3.97;1.60;;;;;;;21.76;38.57;99420.06;4450496;32;33883;-64
2022/05/28 06:46:28;;;;;;;3.22;1.83;;;;;;;21.33;39.68;99417.28;4450044;32;34524;-64
2022/05/28 06:49:01;;;;;;;3.35;1.70;;;;;;;20.95;40.85;99417.44;4452443;32;33907;-64
2022/05/28 06:51:29;;;;;;;3.85;1.42;;;;;;;20.98;41.00;99422.50;4452211;32;35291;-65
2022/05/28 06:53:56;;;;;;;2.87;1.48;;;;;;;21.04;40.24;99429.06;4451520;32;34692;-65
2022/05/28 06:56:24;;;;;;;5.15;1.48;;;;;;;20.78;40.78;99418.69;4450161;32;34030;-64
2022/05/28 06:58:52;;;;;;;3.60;1.73;;;;;;;21.02;40.65;99429.25;4451601;32;32614;-65
2022/05/28 07:01:19;;;;;;;3.87;1.42;;;;;;;21.22;40.14;99421.34;4452765;32;34776;-65
2022/05/28 07:03:47;;;;;;;3.17;1.60;;;;;;;21.31;39.77;99436.50;4452846;32;34156;-64
2022/05/28 07:06:15;;;;;;;3.75;1.40;;;;;;;21.57;39.71;99446.91;4450319;32;34502;-66
2022/05/28 07:08:43;;;;;;;7.05;1.65;;;;;;;21.60;39.56;99440.22;4452024;32;32275;-65
2022/05/28 07:11:11;;;;;;;4.28;1.45;;;;;;;21.15;39.82;99443.06;4452850;32;33715;-65
2022/05/28 07:13:39;;;;;;;3.25;1.20;;;;;;;20.97;40.43;99448.03;4452985;32;35264;-64
2022/05/28 07:16:08;;;;;;;3.15;1.48;;;;;;;20.91;40.29;99448.78;4449990;32;33980;-66
2022/05/28 07:18:37;;;;;;;4.82;1.50;;;;;;;20.90;40.29;99458.84;4446232;32;33842;-65
2022/05/28 07:21:06;;;;;;;3.83;1.30;;;;;;;21.07;40.26;99445.88;4450390;32;33911;-64
2022/05/28 07:23:34;;;;;;;2.35;1.40;;;;;;;21.23;40.71;99452.13;4450528;32;34164;-63
2022/05/28 07:26:10;;;;;;;3.53;1.35;;;;;;;21.25;40.31;99456.34;4451495;32;33189;-65
2022/05/28 07:28:40;;;;;;;3.47;1.58;;;;;;;21.33;39.79;99458.94;4452297;32;32221;-64
2022/05/28 07:31:13;;;;;;;6.07;1.70;;;;;;;21.18;39.06;99460.84;4440939;32;113659;-65
2022/05/28 07:33:45;;;;;;;4.00;1.50;;;;;;;20.83;40.18;99467.91;4451042;32;33402;-65
2022/05/28 07:36:20;;;;;;;4.30;1.70;;;;;;;21.05;39.66;99469.69;4450079;32;34433;-64
2022/05/28 07:38:48;;;;;;;2.90;1.60;;;;;;;21.28;39.42;99463.28;4452072;32;33731;-64
2022/05/28 07:41:19;;;;;;;6.72;1.92;;;;;;;21.05;40.00;99469.69;4451216;32;33900;-63
2022/05/28 07:43:48;;;;;;;3.53;1.62;;;;;;;21.10;39.44;99471.84;4452234;32;33879;-65
2022/05/28 07:46:19;;;;;;;3.47;1.52;;;;;;;21.32;38.17;99478.22;4451438;32;32148;-66
2022/05/28 07:48:48;;;;;;;4.78;1.60;;;;;;;21.10;38.45;99469.97;4452222;32;32137;-65
2022/05/28 07:51:16;;;;;;;4.22;1.70;;;;;;;20.67;40.03;99475.25;4449731;32;33744;-66
2022/05/28 07:53:44;;;;;;;6.15;1.87;;;;;;;20.86;39.67;99481.97;4441566;32;33648;-64
2022/05/28 07:56:12;;;;;;;2.45;1.60;;;;;;;20.69;39.63;99473.16;4451176;32;33354;-64
2022/05/28 07:58:41;;;;;;;8.82;1.67;;;;;;;21.39;39.14;99481.88;4442682;32;33923;-65
2022/05/28 08:01:18;;;;;;;3.60;1.67;;;;;;;21.51;38.85;99484.94;4451049;32;34971;-64
2022/05/28 08:03:46;;;;;;;3.42;1.67;;;;;;;21.39;39.80;99481.88;4444821;32;33995;-64
2022/05/28 08:06:14;;;;;;;4.37;1.70;;;;;;;21.63;38.12;99476.06;4452603;32;34216;-64
2022/05/28 08:08:43;;;;;;;3.75;1.45;;;;;;;20.62;37.85;99476.81;4453981;32;33864;-67
2022/05/28 08:11:11;;;;;;;3.12;1.60;;;;;;;21.14;36.10;99473.16;4452321;32;34025;-63
2022/05/28 08:13:39;;;;;;;3.97;1.40;;;;;;;21.16;36.93;99471.09;4451779;32;34555;-64
2022/05/28 08:16:06;;;;;;;4.78;1.75;;;;;;;21.52;37.41;99470.31;4452741;32;32853;-64
2022/05/28 08:18:37;;;;;;;3.87;1.50;;;;;;;21.67;37.80;99471.09;4454184;32;33775;-65
2022/05/28 08:23:50;;;;;;;3.70;1.40;;;;;;;21.31;37.26;99479.22;4452886;32;33596;-64
2022/05/28 08:26:19;;;;;;;4.60;1.75;;;;;;;21.33;36.29;99485.34;4452845;32;34523;-65
2022/05/28 08:28:49;;;;;;;5.90;1.87;;;;;;;21.48;36.15;99486.19;4451983;32;32601;-64
2022/05/28 08:31:18;;;;;;;7.62;1.52;;;;;;;21.06;36.49;99492.28;4452470;32;34127;-65
2022/05/28 08:33:46;;;;;;;3.45;1.50;;;;;;;20.96;35.76;99497.19;4452511;32;33666;-65
2022/05/28 08:36:15;;;;;;;4.45;1.50;;;;;;;20.71;34.89;99492.03;4451395;32;32253;-65
2022/05/28 08:38:43;;;;;;;5.95;1.48;;;;;;;21.10;35.87;99483.59;4453720;32;33894;-64
2022/05/28 08:41:14;;;;;;;2.47;1.40;;;;;;;21.28;35.11;99485.03;4451606;32;33845;-64
2022/05/28 08:43:49;;;;;;;3.90;1.85;;;;;;;21.29;36.14;99484.88;4451952;32;32568;-65
2022/05/28 08:46:21;;;;;;;5.70;2.00;;;;;;;21.55;35.00;99476.22;4450606;32;33111;-65
2022/05/28 08:48:55;;;;;;;4.57;1.75;;;;;;;21.05;36.04;99482.44;4451585;32;34225;-67
2022/05/28 08:51:37;;;;;;;5.70;1.80;;;;;;;21.74;34.69;99485.63;4448758;32;32814;-67
2022/05/28 08:54:08;;;;;;;6.37;1.77;;;;;;;21.69;33.71;99489.97;4450628;32;35125;-65
2022/05/28 08:56:38;;;;;;;3.33;1.42;;;;;;;22.01;33.84;99472.28;4452957;32;32252;-65
2022/05/28 08:59:19;;;;;;;5.75;1.62;;;;;;;22.20;33.62;99476.25;4452572;32;33903;-63
2022/05/28 09:01:53;;;;;;;6.20;1.98;;;;;;;22.17;33.59;99480.22;4448821;32;33741;-65
2022/05/28 09:04:31;;;;;;;4.97;1.90;;;;;;;22.37;33.48;99474.09;4452698;32;33624;-65
2022/05/28 09:07:04;;;;;;;5.62;1.75;;;;;;;22.17;34.17;99482.94;4450259;32;34470;-65
2022/05/28 09:09:44;;;;;;;16.87;2.15;;;;;;;21.95;33.79;99470.31;4453786;32;32538;-64
2022/05/28 09:12:16;;;;;;;4.53;1.67;;;;;;;21.81;33.73;99469.38;4449074;32;34047;-64
2022/05/28 09:14:44;;;;;;;5.40;1.62;;;;;;;21.88;33.41;99464.81;4453478;32;32697;-63
2022/05/28 09:17:21;;;;;;;3.47;1.62;;;;;;;22.33;33.18;99457.28;4449334;32;33180;-64
2022/05/28 09:19:48;;;;;;;3.35;1.60;;;;;;;22.02;34.83;99458.47;4444632;32;33718;-64
2022/05/28 09:22:18;;;;;;;3.92;1.40;;;;;;;22.12;33.46;99463.59;4449147;32;33881;-63
2022/05/28 09:24:45;;;;;;;5.22;1.52;;;;;;;21.92;34.32;99468.81;4445022;32;32638;-65
2022/05/28 09:27:19;;;;;;;3.72;1.52;;;;;;;21.70;35.37;99467.13;4452527;32;33567;-63
2022/05/28 09:30:21;;;;;;;9.00;1.73;;;;;;;21.96;35.96;99467.44;4452847;32;33524;-63
2022/05/28 09:33:17;;;;;;;3.97;1.70;;;;;;;22.09;35.02;99462.09;4447806;32;34370;-63
2022/05/28 09:36:20;;;;;;;5.75;1.80;;;;;;;22.03;35.66;99457.41;4440230;32;33340;-65
2022/05/28 09:39:01;;;;;;;3.80;1.60;;;;;;;21.62;35.47;99449.88;4438439;32;34473;-63
2022/05/28 09:42:02;;;;;;;6.28;2.22;;;;;;;22.14;34.36;99457.94;4449267;32;32616;-65
2022/05/28 09:44:42;;;;;;;5.93;1.90;;;;;;;22.13;36.00;99462.53;4452482;32;34028;-66
2022/05/28 09:47:13;;;;;;;5.53;2.20;;;;;;;21.49;36.72;99463.34;4453770;32;35202;-64
2022/05/28 09:49:50;;;;;;;4.82;1.92;;;;;;;21.93;36.17;99466.97;4451731;32;32288;-66
2022/05/28 09:52:34;;;;;;;3.65;1.75;;;;;;;21.90;36.77;99475.53;4450889;32;33775;-66
2022/05/28 09:55:21;;;;;;;4.90;2.37;;;;;;;21.30;37.83;99477.56;4438583;32;35203;-65
2022/05/28 09:57:57;;;;;;;4.70;1.98;;;;;;;21.54;36.30;99476.38;4450520;32;33721;-65
2022/05/28 10:00:24;;;;;;;7.03;2.10;;;;;;;21.61;36.99;99472.72;4434581;32;32637;-64
2022/05/28 10:05:51;;;;;;;5.57;2.12;;;;;;;21.44;38.17;99473.97;4452046;32;34882;-64
2022/05/28 10:08:19;;;;;;;;;;;;;;;21.31;38.18;99460.16;4452932;32;32493;-67
2022/05/28 10:10:56;;;;;;;4.40;2.20;;;;;;;21.90;37.32;99457.31;4449125;32;33212;-66
2022/05/28 10:13:24;;;;;;;6.22;2.67;;;;;;;21.99;37.18;99452.53;4441833;32;32318;-65
2022/05/28 10:15:54;;;;;;;7.07;2.40;;;;;;;22.41;36.60;99454.41;4451785;32;32982;-65
2022/05/28 10:18:28;;;;;;;5.03;1.92;;;;;;;22.33;35.90;99449.09;4440546;32;34458;-66
2022/05/28 10:21:04;;;;;;;6.10;2.00;;;;;;;22.18;36.48;99446.44;4450728;32;33339;-65
2022/05/28 10:23:34;;;;;;;5.37;2.10;;;;;;;22.41;37.27;99448.97;4437140;32;33654;-64
2022/05/28 10:26:03;;;;;;;6.75;2.20;;;;;;;22.07;36.61;99445.09;4448823;32;33852;-64
2022/05/28 10:28:51;;;;;;;5.22;1.80;;;;;;;22.08;36.33;99429.56;4444654;32;33849;-65
2022/05/28 10:31:38;;;;;;;5.87;2.00;;;;;;;21.89;34.40;99441.97;4446081;32;34556;-65
2022/05/28 10:34:07;;;;;;;5.87;2.03;;;;;;;21.33;35.09;99436.34;4449999;32;32449;-64
2022/05/28 10:36:35;;;;;;;3.58;1.55;;;;;;;22.19;34.75;99439.97;4450587;32;34054;-64
2022/05/28 10:39:11;;;;;;;4.93;1.73;;;;;;;22.07;34.64;99438.78;4448462;32;33873;-64
2022/05/28 10:41:41;;;;;;;5.10;1.87;;;;;;;22.24;34.91;99428.47;4447328;32;33634;-63
2022/05/28 10:44:12;;;;;;;6.15;1.87;;;;;;;22.28;33.84;99421.59;4447951;32;34222;-64
2022/05/28 10:46:52;;;;;;;5.68;2.03;;;;;;;22.66;32.29;99423.94;4444807;32;33726;-64
2022/05/28 10:49:29;;;;;;;7.10;2.00;;;;;;;21.99;33.03;99430.75;4446474;32;35210;-63
2022/05/28 10:52:15;;;;;;;7.00;1.92;;;;;;;22.35;34.30;99427.94;4451037;32;33607;-64
2022/05/28 10:54:46;;;;;;;;;;;;;;;22.58;32.90;99426.84;4452083;32;34247;-65
2022/05/28 10:57:44;;;;;;;6.22;1.83;;;;;;;22.63;33.22;99427.06;4448444;32;34207;-63
2022/05/28 11:00:19;;;;;;;5.90;2.00;;;;;;;22.54;33.96;99420.94;4450350;32;33189;-63
2022/05/28 11:03:08;;;;;;;3.58;1.80;;;;;;;22.84;33.35;99416.06;4442210;32;33504;-64
2022/05/28 11:05:58;;;;;;;6.45;2.35;;;;;;;22.77;32.51;99415.19;4449235;32;35016;-65
2022/05/28 11:08:51;;;;;;;3.97;1.80;;;;;;;22.76;30.67;99417.09;4440521;32;35129;-64
2022/05/28 11:11:51;;;;;;;4.03;1.62;;;;;;;22.72;30.28;99409.50;4446832;32;32113;-64
2022/05/28 11:15:00;;;;;;;4.07;1.55;;;;;;;22.73;30.87;99405.75;4438045;32;32284;-66
2022/05/28 11:17:36;;;;;;;3.92;1.60;;;;;;;21.93;31.23;99415.22;4435325;32;32518;-63
2022/05/28 11:20:19;;;;;;;4.62;1.45;;;;;;;22.26;30.64;99418.22;4444431;32;32468;-64
2022/05/28 11:23:03;;;;;;;7.35;1.67;;;;;;;21.97;31.23;99408.31;4444103;32;32943;-64
2022/05/28 11:25:54;;;;;;;3.47;1.30;;;;;;;21.69;30.90;99408.25;4445106;32;33068;-65
2022/05/28 11:28:39;;;;;;;5.45;1.70;;;;;;;22.12;30.07;99406.34;4454672;32;34039;-64
2022/05/28 11:31:18;;;;;;;4.05;1.70;;;;;;;21.61;30.16;99409.25;4447703;32;34962;-65
2022/05/28 11:33:47;;;;;;;9.32;2.83;;;;;;;21.84;30.84;99404.44;4438019;32;33668;-63
2022/05/28 11:36:30;;;;;;;4.70;1.52;;;;;;;22.10;30.94;99392.06;4451270;32;33200;-62
2022/05/28 11:39:08;;;;;;;3.83;1.70;;;;;;;22.78;29.95;99397.78;4429353;32;33812;-65
2022/05/28 11:41:53;;;;;;;6.68;1.90;;;;;;;22.99;30.35;99394.16;4449819;32;34101;-64
2022/05/28 11:44:40;;;;;;;6.10;1.60;;;;;;;22.70;30.30;99393.34;4436108;32;34785;-64
2022/05/28 11:47:26;;;;;;;4.22;1.60;;;;;;;22.63;28.93;99389.75;4443246;32;33065;-66
2022/05/28 11:53:08;;;;;;;3.58;1.52;;;;;;;22.58;29.32;99383.19;4439175;32;33443;-65
2022/05/28 11:55:38;;;;;;;3.72;1.40;;;;;;;22.52;29.99;99380.22;4443489;32;32894;-67
2022/05/28 11:58:15;;;;;;;4.93;1.62;;;;;;;22.36;30.50;99374.25;4445465;32;32011;-65
2022/05/28 12:00:49;;;;;;;7.30;2.05;;;;;;;21.67;30.96;99377.66;4447379;32;35133;-65
2022/05/28 12:03:16;;;;;;;5.10;2.05;;;;;;;21.84;31.13;99369.00;4440734;32;35124;-64
2022/05/28 12:05:49;;;;;;;5.45;1.73;;;;;;;21.49;30.44;99368.06;4444550;32;33340;-65
2022/05/28 12:08:22;;;;;;;11.12;1.98;;;;;;;21.47;32.13;99370.13;4448048;32;32433;-65